sensor_id;sensor_type;location;lat;lon;timestamp;temperature;humidity
69938;DHT22;57248;47.320;15.998;2024-01-06T00:00:50;2.81;97.98
69938;DHT22;57248;47.320;15.998;2024-01-06T00:03:22;2.79;97.37
69938;DHT22;57248;47.320;15.998;2024-01-06T00:05:56;2.79;97.21
69938;DHT22;57248;47.320;15.998;2024-01-06T00:08:21;2.81;97.16
69938;DHT22;57248;47.320;15.998;2024-01-06T00:10:54;2.82;97.01
69938;DHT22;57248;47.320;15.998;2024-01-06T00:13:27;2.85;96.94
69938;DHT22;57248;47.320;15.998;2024-01-06T00:16:00;2.85;97.25
69938;DHT22;57248;47.320;15.998;2024-01-06T00:18:32;2.86;97.31
69938;DHT22;57248;47.320;15.998;2024-01-06T00:21:05;2.89;97.08
69938;DHT22;57248;47.320;15.998;2024-01-06T00:23:37;2.91;97.32
69938;DHT22;57248;47.320;15.998;2024-01-06T00:26:10;2.93;97.20
69938;DHT22;57248;47.320;15.998;2024-01-06T00:28:38;2.97;97.14
69938;DHT22;57248;47.320;15.998;2024-01-06T00:31:10;3.00;97.24
69938;DHT22;57248;47.320;15.998;2024-01-06T00:33:42;3.00;97.07
69938;DHT22;57248;47.320;15.998;2024-01-06T00:36:15;3.00;97.26
69938;DHT22;57248;47.320;15.998;2024-01-06T00:38:40;3.07;97.42
69938;DHT22;57248;47.320;15.998;2024-01-06T00:41:13;3.04;97.21
69938;DHT22;57248;47.320;15.998;2024-01-06T00:43:38;3.06;97.53
69938;DHT22;57248;47.320;15.998;2024-01-06T00:46:10;3.03;97.61
69938;DHT22;57248;47.320;15.998;2024-01-06T00:48:42;3.03;97.62
69938;DHT22;57248;47.320;15.998;2024-01-06T00:51:15;3.07;97.87
69938;DHT22;57248;47.320;15.998;2024-01-06T00:53:47;3.07;97.82
69938;DHT22;57248;47.320;15.998;2024-01-06T00:56:26;3.06;97.83
69938;DHT22;57248;47.320;15.998;2024-01-06T00:59:05;3.03;98.03
69938;DHT22;57248;47.320;15.998;2024-01-06T01:01:31;3.04;97.86
69938;DHT22;57248;47.320;15.998;2024-01-06T01:04:03;3.10;97.96
69938;DHT22;57248;47.320;15.998;2024-01-06T01:06:37;3.14;97.91
69938;DHT22;57248;47.320;15.998;2024-01-06T01:09:09;3.20;97.76
69938;DHT22;57248;47.320;15.998;2024-01-06T01:11:42;3.20;97.70
69938;DHT22;57248;47.320;15.998;2024-01-06T01:14:15;3.22;97.51
69938;DHT22;57248;47.320;15.998;2024-01-06T01:16:50;3.24;97.31
69938;DHT22;57248;47.320;15.998;2024-01-06T01:19:16;3.23;97.19
69938;DHT22;57248;47.320;15.998;2024-01-06T01:21:48;3.24;97.12
69938;DHT22;57248;47.320;15.998;2024-01-06T01:24:21;3.24;97.69
69938;DHT22;57248;47.320;15.998;2024-01-06T01:26:46;3.27;97.31
69938;DHT22;57248;47.320;15.998;2024-01-06T01:29:18;3.26;97.19
69938;DHT22;57248;47.320;15.998;2024-01-06T01:31:51;3.28;97.45
69938;DHT22;57248;47.320;15.998;2024-01-06T01:34:23;3.28;97.16
69938;DHT22;57248;47.320;15.998;2024-01-06T01:36:55;3.30;97.06
69938;DHT22;57248;47.320;15.998;2024-01-06T01:39:27;3.27;97.20
69938;DHT22;57248;47.320;15.998;2024-01-06T01:41:59;3.30;97.57
69938;DHT22;57248;47.320;15.998;2024-01-06T01:44:25;3.34;97.36
69938;DHT22;57248;47.320;15.998;2024-01-06T01:46:57;3.31;97.14
69938;DHT22;57248;47.320;15.998;2024-01-06T01:49:30;3.34;97.20
69938;DHT22;57248;47.320;15.998;2024-01-06T01:52:04;3.30;97.38
69938;DHT22;57248;47.320;15.998;2024-01-06T01:54:31;3.28;97.75
69938;DHT22;57248;47.320;15.998;2024-01-06T01:57:11;3.31;97.51
69938;DHT22;57248;47.320;15.998;2024-01-06T01:59:44;3.30;97.86
69938;DHT22;57248;47.320;15.998;2024-01-06T02:02:18;3.31;97.66
69938;DHT22;57248;47.320;15.998;2024-01-06T02:04:50;3.33;97.38
69938;DHT22;57248;47.320;15.998;2024-01-06T02:07:22;3.34;97.47
69938;DHT22;57248;47.320;15.998;2024-01-06T02:09:54;3.34;97.49
69938;DHT22;57248;47.320;15.998;2024-01-06T02:12:26;3.38;97.49
69938;DHT22;57248;47.320;15.998;2024-01-06T02:14:52;3.40;97.65
69938;DHT22;57248;47.320;15.998;2024-01-06T02:17:23;3.45;97.92
69938;DHT22;57248;47.320;15.998;2024-01-06T02:19:56;3.47;98.03
69938;DHT22;57248;47.320;15.998;2024-01-06T02:22:22;3.47;97.97
69938;DHT22;57248;47.320;15.998;2024-01-06T02:24:54;3.51;97.82
69938;DHT22;57248;47.320;15.998;2024-01-06T02:27:26;3.47;97.75
69938;DHT22;57248;47.320;15.998;2024-01-06T02:29:58;3.45;98.10
69938;DHT22;57248;47.320;15.998;2024-01-06T02:32:30;3.45;97.88
69938;DHT22;57248;47.320;15.998;2024-01-06T02:35:02;3.43;97.69
69938;DHT22;57248;47.320;15.998;2024-01-06T02:37:34;3.35;98.20
69938;DHT22;57248;47.320;15.998;2024-01-06T02:40:08;3.30;98.35
69938;DHT22;57248;47.320;15.998;2024-01-06T02:42:40;3.35;98.13
69938;DHT22;57248;47.320;15.998;2024-01-06T02:45:12;3.31;98.49
69938;DHT22;57248;47.320;15.998;2024-01-06T02:47:44;3.37;98.68
69938;DHT22;57248;47.320;15.998;2024-01-06T02:50:18;3.44;98.54
69938;DHT22;57248;47.320;15.998;2024-01-06T02:52:46;3.43;98.32
69938;DHT22;57248;47.320;15.998;2024-01-06T02:55:18;3.47;98.36
69938;DHT22;57248;47.320;15.998;2024-01-06T02:58:04;3.45;97.80
69938;DHT22;57248;47.320;15.998;2024-01-06T03:00:43;3.44;98.44
69938;DHT22;57248;47.320;15.998;2024-01-06T03:03:15;3.44;98.30
69938;DHT22;57248;47.320;15.998;2024-01-06T03:05:47;3.38;98.17
69938;DHT22;57248;47.320;15.998;2024-01-06T03:08:14;3.37;98.54
69938;DHT22;57248;47.320;15.998;2024-01-06T03:10:47;3.41;98.49
69938;DHT22;57248;47.320;15.998;2024-01-06T03:13:19;3.41;98.34
69938;DHT22;57248;47.320;15.998;2024-01-06T03:15:51;3.44;98.11
69938;DHT22;57248;47.320;15.998;2024-01-06T03:18:17;3.45;98.33
69938;DHT22;57248;47.320;15.998;2024-01-06T03:20:49;3.45;98.01
69938;DHT22;57248;47.320;15.998;2024-01-06T03:23:21;3.43;97.81
69938;DHT22;57248;47.320;15.998;2024-01-06T03:25:53;3.47;97.83
69938;DHT22;57248;47.320;15.998;2024-01-06T03:28:18;3.47;97.60
69938;DHT22;57248;47.320;15.998;2024-01-06T03:30:50;3.48;97.63
69938;DHT22;57248;47.320;15.998;2024-01-06T03:33:22;3.45;97.29
69938;DHT22;57248;47.320;15.998;2024-01-06T03:35:54;3.44;97.56
69938;DHT22;57248;47.320;15.998;2024-01-06T03:38:26;3.45;97.48
69938;DHT22;57248;47.320;15.998;2024-01-06T03:40:58;3.41;97.41
69938;DHT22;57248;47.320;15.998;2024-01-06T03:43:30;3.44;97.33
69938;DHT22;57248;47.320;15.998;2024-01-06T03:46:02;3.45;97.80
69938;DHT22;57248;47.320;15.998;2024-01-06T03:48:35;3.44;97.66
69938;DHT22;57248;47.320;15.998;2024-01-06T03:51:03;3.37;98.10
69938;DHT22;57248;47.320;15.998;2024-01-06T03:53:35;3.38;98.09
69938;DHT22;57248;47.320;15.998;2024-01-06T03:56:07;3.41;97.75
69938;DHT22;57248;47.320;15.998;2024-01-06T03:58:39;3.43;97.79
69938;DHT22;57248;47.320;15.998;2024-01-06T04:01:11;3.43;98.32
69938;DHT22;57248;47.320;15.998;2024-01-06T04:03:43;3.45;98.43
69938;DHT22;57248;47.320;15.998;2024-01-06T04:06:15;3.48;98.27
69938;DHT22;57248;47.320;15.998;2024-01-06T04:08:47;3.51;98.32
69938;DHT22;57248;47.320;15.998;2024-01-06T04:11:13;3.53;97.91
69938;DHT22;57248;47.320;15.998;2024-01-06T04:13:51;3.54;98.06
69938;DHT22;57248;47.320;15.998;2024-01-06T04:16:23;3.58;98.22
69938;DHT22;57248;47.320;15.998;2024-01-06T04:18:57;3.58;98.61
69938;DHT22;57248;47.320;15.998;2024-01-06T04:21:23;3.61;98.59
69938;DHT22;57248;47.320;15.998;2024-01-06T04:23:54;3.61;97.90
69938;DHT22;57248;47.320;15.998;2024-01-06T04:26:27;3.64;98.09
69938;DHT22;57248;47.320;15.998;2024-01-06T04:28:59;3.67;98.16
69938;DHT22;57248;47.320;15.998;2024-01-06T04:31:31;3.68;97.89
69938;DHT22;57248;47.320;15.998;2024-01-06T04:34:03;3.68;97.97
69938;DHT22;57248;47.320;15.998;2024-01-06T04:36:35;3.70;97.65
69938;DHT22;57248;47.320;15.998;2024-01-06T04:39:07;3.68;97.80
69938;DHT22;57248;47.320;15.998;2024-01-06T04:41:41;3.72;97.93
69938;DHT22;57248;47.320;15.998;2024-01-06T04:44:13;3.71;98.18
69938;DHT22;57248;47.320;15.998;2024-01-06T04:46:39;3.75;98.19
69938;DHT22;57248;47.320;15.998;2024-01-06T04:49:10;3.75;98.28
69938;DHT22;57248;47.320;15.998;2024-01-06T04:51:35;3.78;97.93
69938;DHT22;57248;47.320;15.998;2024-01-06T04:54:07;3.79;98.00
69938;DHT22;57248;47.320;15.998;2024-01-06T04:56:46;3.79;97.93
69938;DHT22;57248;47.320;15.998;2024-01-06T04:59:18;3.79;97.99
69938;DHT22;57248;47.320;15.998;2024-01-06T05:01:51;3.88;98.24
69938;DHT22;57248;47.320;15.998;2024-01-06T05:04:23;3.85;97.99
69938;DHT22;57248;47.320;15.998;2024-01-06T05:06:55;3.86;97.65
69938;DHT22;57248;47.320;15.998;2024-01-06T05:09:21;3.88;97.76
69938;DHT22;57248;47.320;15.998;2024-01-06T05:11:53;3.86;98.03
69938;DHT22;57248;47.320;15.998;2024-01-06T05:14:25;3.89;97.72
69938;DHT22;57248;47.320;15.998;2024-01-06T05:16:58;3.91;97.60
69938;DHT22;57248;47.320;15.998;2024-01-06T05:19:31;3.89;97.96
69938;DHT22;57248;47.320;15.998;2024-01-06T05:22:03;3.93;97.92
69938;DHT22;57248;47.320;15.998;2024-01-06T05:24:35;3.93;98.24
69938;DHT22;57248;47.320;15.998;2024-01-06T05:27:08;3.95;98.21
69938;DHT22;57248;47.320;15.998;2024-01-06T05:29:40;3.99;98.13
69938;DHT22;57248;47.320;15.998;2024-01-06T05:32:12;3.99;98.31
69938;DHT22;57248;47.320;15.998;2024-01-06T05:34:44;4.01;98.04
69938;DHT22;57248;47.320;15.998;2024-01-06T05:37:16;4.03;98.54
69938;DHT22;57248;47.320;15.998;2024-01-06T05:39:48;4.01;98.39
69938;DHT22;57248;47.320;15.998;2024-01-06T05:42:20;4.03;98.68
69938;DHT22;57248;47.320;15.998;2024-01-06T05:44:52;4.03;98.44
69938;DHT22;57248;47.320;15.998;2024-01-06T05:47:24;4.03;98.09
69938;DHT22;57248;47.320;15.998;2024-01-06T05:49:50;4.09;98.71
69938;DHT22;57248;47.320;15.998;2024-01-06T05:52:21;4.12;98.50
69938;DHT22;57248;47.320;15.998;2024-01-06T05:54:53;8.24;99.69
69938;DHT22;57248;47.320;15.998;2024-01-06T05:57:25;9.24;93.50
69938;DHT22;57248;47.320;15.998;2024-01-06T06:00:09;9.58;90.27
69938;DHT22;57248;47.320;15.998;2024-01-06T06:02:40;9.81;87.66
69938;DHT22;57248;47.320;15.998;2024-01-06T06:05:06;10.13;85.06
69938;DHT22;57248;47.320;15.998;2024-01-06T06:07:40;10.16;83.49
69938;DHT22;57248;47.320;15.998;2024-01-06T06:10:12;8.88;82.38
69938;DHT22;57248;47.320;15.998;2024-01-06T06:12:44;7.38;89.08
69938;DHT22;57248;47.320;15.998;2024-01-06T06:15:16;6.52;90.10
69938;DHT22;57248;47.320;15.998;2024-01-06T06:17:42;5.93;92.54
69938;DHT22;57248;47.320;15.998;2024-01-06T06:20:14;5.69;93.71
69938;DHT22;57248;47.320;15.998;2024-01-06T06:22:46;5.67;93.78
69938;DHT22;57248;47.320;15.998;2024-01-06T06:25:18;5.56;94.36
69938;DHT22;57248;47.320;15.998;2024-01-06T06:27:50;5.43;94.75
69938;DHT22;57248;47.320;15.998;2024-01-06T06:30:22;5.43;94.85
69938;DHT22;57248;47.320;15.998;2024-01-06T06:32:54;5.26;95.37
69938;DHT22;57248;47.320;15.998;2024-01-06T06:35:26;5.23;95.14
69938;DHT22;57248;47.320;15.998;2024-01-06T06:37:58;5.09;95.95
69938;DHT22;57248;47.320;15.998;2024-01-06T06:40:24;5.08;95.60
69938;DHT22;57248;47.320;15.998;2024-01-06T06:42:55;4.87;97.57
69938;DHT22;57248;47.320;15.998;2024-01-06T06:45:27;4.91;97.40
69938;DHT22;57248;47.320;15.998;2024-01-06T06:47:59;4.88;97.52
69938;DHT22;57248;47.320;15.998;2024-01-06T06:50:32;4.89;97.37
69938;DHT22;57248;47.320;15.998;2024-01-06T06:53:04;4.89;97.46
69938;DHT22;57248;47.320;15.998;2024-01-06T06:55:36;4.84;97.37
69938;DHT22;57248;47.320;15.998;2024-01-06T06:58:16;4.81;97.23
69938;DHT22;57248;47.320;15.998;2024-01-06T07:00:48;4.84;97.22
69938;DHT22;57248;47.320;15.998;2024-01-06T07:03:20;4.85;97.29
69938;DHT22;57248;47.320;15.998;2024-01-06T07:05:52;4.84;97.40
69938;DHT22;57248;47.320;15.998;2024-01-06T07:08:18;4.87;98.22
69938;DHT22;57248;47.320;15.998;2024-01-06T07:10:50;4.91;98.12
69938;DHT22;57248;47.320;15.998;2024-01-06T07:13:22;4.91;97.57
69938;DHT22;57248;47.320;15.998;2024-01-06T07:15:48;4.88;98.84
69938;DHT22;57248;47.320;15.998;2024-01-06T07:18:19;4.96;98.55
69938;DHT22;57248;47.320;15.998;2024-01-06T07:20:55;4.96;98.23
69938;DHT22;57248;47.320;15.998;2024-01-06T07:23:27;4.99;98.46
69938;DHT22;57248;47.320;15.998;2024-01-06T07:26:01;5.05;97.74
69938;DHT22;57248;47.320;15.998;2024-01-06T07:28:26;5.05;97.86
69938;DHT22;57248;47.320;15.998;2024-01-06T07:31:00;5.09;98.01
69938;DHT22;57248;47.320;15.998;2024-01-06T07:33:25;5.16;97.60
69938;DHT22;57248;47.320;15.998;2024-01-06T07:35:57;5.15;98.10
69938;DHT22;57248;47.320;15.998;2024-01-06T07:38:29;5.21;97.87
69938;DHT22;57248;47.320;15.998;2024-01-06T07:40:56;5.11;98.09
69938;DHT22;57248;47.320;15.998;2024-01-06T07:43:28;5.19;97.91
69938;DHT22;57248;47.320;15.998;2024-01-06T07:46:00;5.05;98.24
69938;DHT22;57248;47.320;15.998;2024-01-06T07:48:32;5.05;98.48
69938;DHT22;57248;47.320;15.998;2024-01-06T07:51:05;5.12;98.05
69938;DHT22;57248;47.320;15.998;2024-01-06T07:53:31;5.22;97.90
69938;DHT22;57248;47.320;15.998;2024-01-06T07:56:02;5.25;97.73
69938;DHT22;57248;47.320;15.998;2024-01-06T07:58:35;5.26;97.90
69938;DHT22;57248;47.320;15.998;2024-01-06T08:01:15;5.21;98.22
69938;DHT22;57248;47.320;15.998;2024-01-06T08:03:47;5.22;98.63
69938;DHT22;57248;47.320;15.998;2024-01-06T08:06:20;5.26;98.30
69938;DHT22;57248;47.320;15.998;2024-01-06T08:08:52;5.38;98.04
69938;DHT22;57248;47.320;15.998;2024-01-06T08:11:24;5.46;97.79
69938;DHT22;57248;47.320;15.998;2024-01-06T08:13:56;5.47;97.64
69938;DHT22;57248;47.320;15.998;2024-01-06T08:16:28;5.49;98.21
69938;DHT22;57248;47.320;15.998;2024-01-06T08:19:00;5.46;98.26
69938;DHT22;57248;47.320;15.998;2024-01-06T08:21:33;5.40;98.83
69938;DHT22;57248;47.320;15.998;2024-01-06T08:24:06;5.50;98.53
69938;DHT22;57248;47.320;15.998;2024-01-06T08:26:32;5.44;98.73
69938;DHT22;57248;47.320;15.998;2024-01-06T08:29:06;5.53;98.52
69938;DHT22;57248;47.320;15.998;2024-01-06T08:31:38;5.56;98.47
69938;DHT22;57248;47.320;15.998;2024-01-06T08:34:10;5.63;98.03
69938;DHT22;57248;47.320;15.998;2024-01-06T08:36:42;5.70;97.81
69938;DHT22;57248;47.320;15.998;2024-01-06T08:39:15;5.78;97.71
69938;DHT22;57248;47.320;15.998;2024-01-06T08:41:47;5.84;97.96
69938;DHT22;57248;47.320;15.998;2024-01-06T08:44:20;5.93;97.68
69938;DHT22;57248;47.320;15.998;2024-01-06T08:46:53;5.90;97.77
69938;DHT22;57248;47.320;15.998;2024-01-06T08:49:25;5.89;98.23
69938;DHT22;57248;47.320;15.998;2024-01-06T08:51:51;5.93;97.78
69938;DHT22;57248;47.320;15.998;2024-01-06T08:54:23;6.00;98.25
69938;DHT22;57248;47.320;15.998;2024-01-06T08:56:55;5.91;98.30
69938;DHT22;57248;47.320;15.998;2024-01-06T08:59:41;5.90;98.51
69938;DHT22;57248;47.320;15.998;2024-01-06T09:02:13;5.86;98.72
69938;DHT22;57248;47.320;15.998;2024-01-06T09:04:45;5.86;98.98
69938;DHT22;57248;47.320;15.998;2024-01-06T09:07:17;5.86;98.98
69938;DHT22;57248;47.320;15.998;2024-01-06T09:09:51;5.91;99.12
69938;DHT22;57248;47.320;15.998;2024-01-06T09:12:23;5.94;99.19
69938;DHT22;57248;47.320;15.998;2024-01-06T09:14:55;5.97;99.22
69938;DHT22;57248;47.320;15.998;2024-01-06T09:17:27;5.97;99.34
69938;DHT22;57248;47.320;15.998;2024-01-06T09:20:01;6.05;99.38
69938;DHT22;57248;47.320;15.998;2024-01-06T09:22:33;6.12;99.50
69938;DHT22;57248;47.320;15.998;2024-01-06T09:24:59;6.22;99.28
69938;DHT22;57248;47.320;15.998;2024-01-06T09:27:31;6.38;98.88
69938;DHT22;57248;47.320;15.998;2024-01-06T09:30:05;6.59;98.72
69938;DHT22;57248;47.320;15.998;2024-01-06T09:32:32;6.63;98.36
69938;DHT22;57248;47.320;15.998;2024-01-06T09:35:04;6.79;98.05
69938;DHT22;57248;47.320;15.998;2024-01-06T09:37:36;6.76;97.68
69938;DHT22;57248;47.320;15.998;2024-01-06T09:40:12;6.80;97.46
69938;DHT22;57248;47.320;15.998;2024-01-06T09:42:48;6.82;97.58
69938;DHT22;57248;47.320;15.998;2024-01-06T09:45:21;6.93;97.21
69938;DHT22;57248;47.320;15.998;2024-01-06T09:47:55;6.97;96.92
69938;DHT22;57248;47.320;15.998;2024-01-06T09:50:28;7.13;96.82
69938;DHT22;57248;47.320;15.998;2024-01-06T09:53:02;7.13;97.08
69938;DHT22;57248;47.320;15.998;2024-01-06T09:55:37;7.15;97.23
69938;DHT22;57248;47.320;15.998;2024-01-06T09:58:11;7.10;97.28
69938;DHT22;57248;47.320;15.998;2024-01-06T10:00:52;7.05;97.72
69938;DHT22;57248;47.320;15.998;2024-01-06T10:03:24;7.01;97.59
69938;DHT22;57248;47.320;15.998;2024-01-06T10:05:57;7.08;97.49
69938;DHT22;57248;47.320;15.998;2024-01-06T10:08:32;7.17;97.44
69938;DHT22;57248;47.320;15.998;2024-01-06T10:10:59;7.23;97.30
69938;DHT22;57248;47.320;15.998;2024-01-06T10:13:31;7.31;97.19
69938;DHT22;57248;47.320;15.998;2024-01-06T10:16:05;7.32;97.15
69938;DHT22;57248;47.320;15.998;2024-01-06T10:18:38;7.31;97.16
69938;DHT22;57248;47.320;15.998;2024-01-06T10:21:12;7.27;97.39
69938;DHT22;57248;47.320;15.998;2024-01-06T10:23:45;7.24;97.56
69938;DHT22;57248;47.320;15.998;2024-01-06T10:26:17;7.18;97.81
69938;DHT22;57248;47.320;15.998;2024-01-06T10:28:49;7.17;97.67
69938;DHT22;57248;47.320;15.998;2024-01-06T10:31:25;7.08;98.22
69938;DHT22;57248;47.320;15.998;2024-01-06T10:33:58;7.07;98.32
69938;DHT22;57248;47.320;15.998;2024-01-06T10:36:29;7.00;98.66
69938;DHT22;57248;47.320;15.998;2024-01-06T10:39:03;7.00;98.63
69938;DHT22;57248;47.320;15.998;2024-01-06T10:41:38;7.04;98.57
69938;DHT22;57248;47.320;15.998;2024-01-06T10:44:12;6.90;98.98
69938;DHT22;57248;47.320;15.998;2024-01-06T10:46:47;6.89;98.59
69938;DHT22;57248;47.320;15.998;2024-01-06T10:49:20;6.92;98.60
69938;DHT22;57248;47.320;15.998;2024-01-06T10:51:54;6.94;98.61
69938;DHT22;57248;47.320;15.998;2024-01-06T10:54:28;6.84;97.74
69938;DHT22;57248;47.320;15.998;2024-01-06T10:57:07;6.82;97.33
69938;DHT22;57248;47.320;15.998;2024-01-06T10:59:39;6.66;96.96
69938;DHT22;57248;47.320;15.998;2024-01-06T11:02:06;6.57;97.15
69938;DHT22;57248;47.320;15.998;2024-01-06T11:04:40;6.61;97.42
69938;DHT22;57248;47.320;15.998;2024-01-06T11:07:16;6.63;97.03
69938;DHT22;57248;47.320;15.998;2024-01-06T11:12:18;6.55;97.14
69938;DHT22;57248;47.320;15.998;2024-01-06T11:14:50;6.57;97.11
69938;DHT22;57248;47.320;15.998;2024-01-06T11:17:51;6.56;97.05
69938;DHT22;57248;47.320;15.998;2024-01-06T11:20:28;6.53;95.65
69938;DHT22;57248;47.320;15.998;2024-01-06T11:23:19;6.52;96.20
69938;DHT22;57248;47.320;15.998;2024-01-06T11:25:55;6.59;96.34
69938;DHT22;57248;47.320;15.998;2024-01-06T11:28:29;6.53;96.23
69938;DHT22;57248;47.320;15.998;2024-01-06T11:31:08;6.45;96.28
69938;DHT22;57248;47.320;15.998;2024-01-06T11:33:44;6.36;96.82
69938;DHT22;57248;47.320;15.998;2024-01-06T11:36:19;6.41;96.57
69938;DHT22;57248;47.320;15.998;2024-01-06T11:38:54;6.39;96.70
69938;DHT22;57248;47.320;15.998;2024-01-06T11:41:48;6.43;96.35
69938;DHT22;57248;47.320;15.998;2024-01-06T11:44:21;6.35;96.44
69938;DHT22;57248;47.320;15.998;2024-01-06T11:46:56;6.43;96.33
69938;DHT22;57248;47.320;15.998;2024-01-06T11:49:30;6.36;95.39
69938;DHT22;57248;47.320;15.998;2024-01-06T11:51:58;6.35;95.83
69938;DHT22;57248;47.320;15.998;2024-01-06T11:54:31;6.31;96.15
69938;DHT22;57248;47.320;15.998;2024-01-06T11:57:05;6.26;96.19
69938;DHT22;57248;47.320;15.998;2024-01-06T11:59:36;6.36;95.45
69938;DHT22;57248;47.320;15.998;2024-01-06T12:02:18;6.49;95.19
69938;DHT22;57248;47.320;15.998;2024-01-06T12:04:54;6.55;95.02
69938;DHT22;57248;47.320;15.998;2024-01-06T12:07:25;6.42;95.58
69938;DHT22;57248;47.320;15.998;2024-01-06T12:10:03;6.35;95.67
69938;DHT22;57248;47.320;15.998;2024-01-06T12:12:35;6.42;95.30
69938;DHT22;57248;47.320;15.998;2024-01-06T12:15:08;6.39;95.19
69938;DHT22;57248;47.320;15.998;2024-01-06T12:17:42;6.39;95.75
69938;DHT22;57248;47.320;15.998;2024-01-06T12:20:15;6.48;95.18
69938;DHT22;57248;47.320;15.998;2024-01-06T12:22:51;6.48;94.91
69938;DHT22;57248;47.320;15.998;2024-01-06T12:25:25;6.34;95.57
69938;DHT22;57248;47.320;15.998;2024-01-06T12:27:51;6.32;95.67
69938;DHT22;57248;47.320;15.998;2024-01-06T12:30:25;6.42;95.23
69938;DHT22;57248;47.320;15.998;2024-01-06T12:32:59;6.38;95.47
69938;DHT22;57248;47.320;15.998;2024-01-06T12:35:34;6.31;95.65
69938;DHT22;57248;47.320;15.998;2024-01-06T12:38:08;6.18;95.75
69938;DHT22;57248;47.320;15.998;2024-01-06T12:40:40;6.22;96.08
69938;DHT22;57248;47.320;15.998;2024-01-06T12:43:15;6.12;96.18
69938;DHT22;57248;47.320;15.998;2024-01-06T12:45:48;6.18;96.27
69938;DHT22;57248;47.320;15.998;2024-01-06T12:48:25;6.22;96.29
69938;DHT22;57248;47.320;15.998;2024-01-06T12:50:51;6.15;96.56
69938;DHT22;57248;47.320;15.998;2024-01-06T12:53:25;6.15;96.28
69938;DHT22;57248;47.320;15.998;2024-01-06T12:55:56;6.25;96.35
69938;DHT22;57248;47.320;15.998;2024-01-06T12:58:36;6.08;96.38
69938;DHT22;57248;47.320;15.998;2024-01-06T13:01:10;6.00;96.39
69938;DHT22;57248;47.320;15.998;2024-01-06T13:03:44;6.14;96.32
69938;DHT22;57248;47.320;15.998;2024-01-06T13:06:18;6.04;96.20
69938;DHT22;57248;47.320;15.998;2024-01-06T13:08:50;6.00;96.33
69938;DHT22;57248;47.320;15.998;2024-01-06T13:11:24;5.84;96.62
69938;DHT22;57248;47.320;15.998;2024-01-06T13:13:56;5.93;97.10
69938;DHT22;57248;47.320;15.998;2024-01-06T13:16:29;5.95;96.89
69938;DHT22;57248;47.320;15.998;2024-01-06T13:19:01;6.03;96.62
69938;DHT22;57248;47.320;15.998;2024-01-06T13:21:34;6.08;96.57
69938;DHT22;57248;47.320;15.998;2024-01-06T13:24:07;6.12;96.50
69938;DHT22;57248;47.320;15.998;2024-01-06T13:26:39;6.43;98.21
69938;DHT22;57248;47.320;15.998;2024-01-06T13:29:11;6.15;96.60
69938;DHT22;57248;47.320;15.998;2024-01-06T13:31:45;6.11;96.61
69938;DHT22;57248;47.320;15.998;2024-01-06T13:34:10;6.11;96.34
69938;DHT22;57248;47.320;15.998;2024-01-06T13:36:42;6.01;96.69
69938;DHT22;57248;47.320;15.998;2024-01-06T13:39:16;5.95;96.81
69938;DHT22;57248;47.320;15.998;2024-01-06T13:41:54;5.94;96.63
69938;DHT22;57248;47.320;15.998;2024-01-06T13:44:20;5.97;97.25
69938;DHT22;57248;47.320;15.998;2024-01-06T13:46:56;5.90;96.69
69938;DHT22;57248;47.320;15.998;2024-01-06T13:49:30;5.93;96.69
69938;DHT22;57248;47.320;15.998;2024-01-06T13:51:56;5.91;96.36
69938;DHT22;57248;47.320;15.998;2024-01-06T13:54:29;5.90;96.84
69938;DHT22;57248;47.320;15.998;2024-01-06T13:57:01;5.86;96.39
69938;DHT22;57248;47.320;15.998;2024-01-06T13:59:48;9.64;97.11
69938;DHT22;57248;47.320;15.998;2024-01-06T14:02:20;9.20;89.17
69938;DHT22;57248;47.320;15.998;2024-01-06T14:04:52;7.34;92.98
69938;DHT22;57248;47.320;15.998;2024-01-06T14:07:25;6.69;93.71
69938;DHT22;57248;47.320;15.998;2024-01-06T14:09:57;6.32;93.38
69938;DHT22;57248;47.320;15.998;2024-01-06T14:12:31;6.17;94.36
69938;DHT22;57248;47.320;15.998;2024-01-06T14:15:05;6.04;95.29
69938;DHT22;57248;47.320;15.998;2024-01-06T14:17:31;5.95;95.14
69938;DHT22;57248;47.320;15.998;2024-01-06T14:20:07;5.98;95.51
69938;DHT22;57248;47.320;15.998;2024-01-06T14:22:41;5.93;95.21
69938;DHT22;57248;47.320;15.998;2024-01-06T14:25:15;5.86;95.83
69938;DHT22;57248;47.320;15.998;2024-01-06T14:27:50;5.74;95.86
69938;DHT22;57248;47.320;15.998;2024-01-06T14:30:16;5.77;95.60
69938;DHT22;57248;47.320;15.998;2024-01-06T14:32:48;5.70;96.08
69938;DHT22;57248;47.320;15.998;2024-01-06T14:35:22;5.64;96.04
69938;DHT22;57248;47.320;15.998;2024-01-06T14:37:54;5.67;96.12
69938;DHT22;57248;47.320;15.998;2024-01-06T14:40:27;5.62;96.01
69938;DHT22;57248;47.320;15.998;2024-01-06T14:43:01;5.59;95.87
69938;DHT22;57248;47.320;15.998;2024-01-06T14:45:33;5.56;96.13
69938;DHT22;57248;47.320;15.998;2024-01-06T14:48:01;5.43;96.31
69938;DHT22;57248;47.320;15.998;2024-01-06T14:50:33;5.49;96.30
69938;DHT22;57248;47.320;15.998;2024-01-06T14:53:05;5.43;96.54
69938;DHT22;57248;47.320;15.998;2024-01-06T14:55:38;5.35;96.56
69938;DHT22;57248;47.320;15.998;2024-01-06T14:58:25;5.38;96.16
69938;DHT22;57248;47.320;15.998;2024-01-06T15:01:06;5.29;96.44
69938;DHT22;57248;47.320;15.998;2024-01-06T15:03:37;5.21;96.92
69938;DHT22;57248;47.320;15.998;2024-01-06T15:06:11;5.23;96.96
69938;DHT22;57248;47.320;15.998;2024-01-06T15:08:42;5.16;97.04
69938;DHT22;57248;47.320;15.998;2024-01-06T15:11:16;5.14;97.41
69938;DHT22;57248;47.320;15.998;2024-01-06T15:13:47;5.18;97.47
69938;DHT22;57248;47.320;15.998;2024-01-06T15:16:13;5.14;97.41
69938;DHT22;57248;47.320;15.998;2024-01-06T15:18:47;5.05;97.54
69938;DHT22;57248;47.320;15.998;2024-01-06T15:21:19;5.01;97.35
69938;DHT22;57248;47.320;15.998;2024-01-06T15:23:55;5.04;97.55
69938;DHT22;57248;47.320;15.998;2024-01-06T15:26:27;5.07;97.36
69938;DHT22;57248;47.320;15.998;2024-01-06T15:28:59;5.02;97.37
69938;DHT22;57248;47.320;15.998;2024-01-06T15:31:32;5.05;97.47
69938;DHT22;57248;47.320;15.998;2024-01-06T15:34:04;4.92;97.27
69938;DHT22;57248;47.320;15.998;2024-01-06T15:36:38;4.95;97.16
69938;DHT22;57248;47.320;15.998;2024-01-06T15:39:26;4.92;97.44
69938;DHT22;57248;47.320;15.998;2024-01-06T15:41:58;4.92;97.73
69938;DHT22;57248;47.320;15.998;2024-01-06T15:44:37;4.85;97.92
69938;DHT22;57248;47.320;15.998;2024-01-06T15:47:10;4.88;97.84
69938;DHT22;57248;47.320;15.998;2024-01-06T15:49:43;4.92;97.72
69938;DHT22;57248;47.320;15.998;2024-01-06T15:52:15;4.89;97.63
69938;DHT22;57248;47.320;15.998;2024-01-06T15:54:52;4.87;97.59
69938;DHT22;57248;47.320;15.998;2024-01-06T15:57:19;4.84;97.60
69938;DHT22;57248;47.320;15.998;2024-01-06T15:59:53;4.83;97.58
69938;DHT22;57248;47.320;15.998;2024-01-06T16:02:25;4.84;97.48
69938;DHT22;57248;47.320;15.998;2024-01-06T16:04:57;4.84;97.49